METAR Data
IDs: Format: Raw Decoded Include TAF

Data at: 2128 UTC 18 Apr 2021

CYXX 182100Z 21007KT 200V330 30SM SKC 22/07 A3012 RMK SLP201 DENSITY ALT 800FT